createdAt,value
2018-03-24T00:00:04.443Z,63.9
2018-03-24T00:15:04.987Z,64.5
2018-03-24T00:30:04.935Z,65.2
2018-03-24T00:45:05.141Z,65.1
2018-03-24T01:00:05.432Z,64.8
2018-03-24T01:15:04.821Z,65.4
2018-03-24T01:30:04.642Z,65.9
2018-03-24T01:45:04.756Z,66.5
2018-03-24T02:00:04.824Z,66.1
2018-03-24T02:15:04.302Z,66.7
2018-03-24T02:30:04.742Z,66.1
2018-03-24T02:45:05.429Z,66.4
2018-03-24T03:00:05.266Z,67
2018-03-24T03:15:05.614Z,66.9
2018-03-24T03:30:04.525Z,67.4
2018-03-24T03:45:04.690Z,67.1
2018-03-24T04:00:05.296Z,67.5
2018-03-24T04:15:05.206Z,67.7
2018-03-24T04:30:04.296Z,67.4
2018-03-24T04:45:05.400Z,66.9
2018-03-24T05:00:05.256Z,68
2018-03-24T05:15:05.360Z,67.9
2018-03-24T05:30:05.148Z,68.1
2018-03-24T05:45:04.548Z,67.9
2018-03-24T06:00:05.006Z,68.8
2018-03-24T06:15:05.106Z,69.7
2018-03-24T06:30:04.352Z,69.4
2018-03-24T06:45:04.455Z,68.2
2018-03-24T07:00:04.476Z,68.7
2018-03-24T07:15:05.212Z,68.2
2018-03-24T07:30:04.334Z,68.1
2018-03-24T07:45:05.058Z,59.6
2018-03-24T08:00:05.185Z,59.4
2018-03-24T08:15:04.969Z,56.3
2018-03-24T08:30:05.685Z,37.5
2018-03-24T08:45:05.498Z,30.5
2018-03-24T09:00:05.038Z,28.2
2018-03-24T09:15:04.858Z,28.6
2018-03-24T09:30:04.882Z,30.1
2018-03-24T09:45:04.321Z,29.8
2018-03-24T10:00:05.031Z,30.2
2018-03-24T10:15:05.412Z,36.7
2018-03-24T10:30:05.196Z,40.8
2018-03-24T10:45:05.082Z,43.7
2018-03-24T11:00:04.777Z,43.5
2018-03-24T11:15:04.993Z,45
2018-03-24T11:30:05.432Z,46
2018-03-24T11:45:04.834Z,46.3
2018-03-24T12:00:04.868Z,46.9
2018-03-24T12:15:05.114Z,46.7
2018-03-24T12:30:04.852Z,46.2
2018-03-24T12:45:04.882Z,47.1
2018-03-24T13:00:04.975Z,46
2018-03-24T13:15:04.432Z,46.2
2018-03-24T13:30:05.161Z,46
2018-03-24T13:45:04.603Z,46.2
2018-03-24T14:00:04.410Z,45.8
2018-03-24T14:15:04.851Z,45.1
2018-03-24T14:30:05.077Z,44.7
2018-03-24T14:45:04.532Z,45.6
2018-03-24T15:00:04.961Z,45.3
2018-03-24T15:15:04.502Z,44.8
2018-03-24T15:30:05.166Z,44.8
2018-03-24T15:45:04.591Z,45.3
2018-03-24T16:00:04.997Z,44.7
2018-03-24T16:15:05.554Z,44.9
2018-03-24T16:30:04.396Z,46.3
2018-03-24T16:45:04.286Z,47.1
2018-03-24T17:00:04.750Z,47.7
2018-03-24T17:15:05.312Z,48
2018-03-24T17:30:04.976Z,48.5
2018-03-24T17:45:05.090Z,48.7
2018-03-24T18:00:05.017Z,49.7
2018-03-24T18:15:04.458Z,49.9
2018-03-24T18:30:04.575Z,49.9
2018-03-24T18:45:05.024Z,50.7
2018-03-24T19:00:04.491Z,52.1
2018-03-24T19:15:04.502Z,53.2
2018-03-24T19:30:05.207Z,53.1
2018-03-24T19:45:04.735Z,53.2
2018-03-24T20:00:05.439Z,54.1
2018-03-24T20:15:05.245Z,54.6
2018-03-24T20:30:05.122Z,55.3
2018-03-24T20:45:05.778Z,55.6
2018-03-24T21:00:04.799Z,55.4
2018-03-24T21:15:05.255Z,55.8
2018-03-24T21:30:04.984Z,56.7
2018-03-24T21:45:04.424Z,56.6
2018-03-24T22:00:04.459Z,56.9
2018-03-24T22:15:04.350Z,57.1
2018-03-24T22:30:05.126Z,57.4
2018-03-24T22:45:04.639Z,58.1
2018-03-24T23:00:05.134Z,57.7
2018-03-24T23:15:04.700Z,58.8
2018-03-24T23:30:04.814Z,59.5
2018-03-24T23:45:05.268Z,58.8
